Observations for INVERNESS DALCROSS, United Kingdom (EGPE)

EGPE 201650Z 27006KT 9999 VCSH FEW020 FEW035CB SCT048 10/08 Q1016   
EGPE 201620Z 25009KT 9999 VCSH FEW020 FEW035CB SCT048 11/09 Q1016   
EGPE 201550Z 27013KT 9999 SHRA FEW020 FEW035CB SCT040 12/08 Q1016   
EGPE 201520Z 26015KT 9999 VCSH FEW020 FEW035CB SCT040 11/08 Q1016   
EGPE 201450Z 27010KT 9999 FEW025 FEW035CB 15/06 Q1016   
EGPE 201420Z 28015KT 9999 FEW025 FEW035CB SCT048 13/07 Q1016
EGPE 201350Z 26022KT 9999 -SHRA FEW030 FEW040CB SCT048 13/08 Q1015  
EGPE 201320Z 26012KT 9999 FEW030 FEW048CB 15/07 Q1015   
EGPE 201250Z 27005KT 240V300 9999 FEW025 FEW040CB 15/08 Q1015   
EGPE 201220Z 24006KT 220V280 9999 FEW025 FEW040CB 15/08 Q1015   
EGPE 201150Z 24006KT 210V280 9999 FEW010 SCT040 13/09 Q1015 
EGPE 201120Z VRB03KT 9999 VCSH FEW022 BKN040 14/09 Q1015
EGPE 201050Z VRB02KT 9999 VCSH FEW022 BKN040 11/09 Q1015
EGPE 201020Z 27005KT 9999 VCSH FEW015 BKN040 13/08 Q1015
EGPE 200950Z VRB03KT 9999 FEW015 BKN040 12/08 Q1015 
EGPE 200920Z 27002KT 9999 FEW008 BKN040 11/08 Q1015 
EGPE 200850Z VRB03KT 9999 FEW008 BKN034 11/08 Q1015 
EGPE 200820Z VRB03KT 9999 FEW005 BKN030 10/08 Q1014 
EGPE 200750Z 33004KT 9999 FEW005 BKN030 10/08 Q1014 
EGPE 200720Z 36006KT 9999 FEW006 BKN040 10/08 Q1013 
EGPE 200650Z 35007KT 9999 -RA FEW006 BKN040 10/08 Q1013 
EGPE 200620Z 35006KT 9999 -RA FEW006 BKN040 09/08 Q1012 
EGPE 200550Z 34008KT 9999 -RA FEW006 SCT020 BKN040 09/08 Q1013  
EGPE 200520Z 34007KT 8000 -RA FEW006 SCT012 BKN035 09/08 Q1012  
EGPE 200450Z 36009KT 8000 -RA FEW006 SCT012 BKN035 09/08 Q1012  
EGPE 200420Z 36008KT 6000 RA FEW006 SCT012 BKN035 09/08 Q1012   
EGPE 200350Z 04005KT 8000 -RA FEW006 SCT012 BKN032 09/08 Q1011  
EGPE 200320Z 01004KT 350V060 6000 -RA FEW006 SCT012 BKN032 09/08 Q1011  
EGPE 200250Z 07003KT 8000 -RA FEW006 SCT015 BKN032 09/09 Q1012  
EGPE 200220Z VRB03KT 8000 -RA FEW012 BKN032 09/09 Q1012 
EGPE 200150Z 07002KT 9999 -RA FEW012 BKN042 09/09 Q1012 
EGPE 200120Z VRB01KT 9999 -RA FEW012 BKN042 09/08 Q1012 
EGPE 200050Z AUTO 06001KT 9999 -DZ OVC042/// 09/08 Q1013
EGPE 200020Z AUTO 10003KT 9999 FEW046/// 09/08 Q1013
EGPE 192350Z AUTO 10003KT 9999 OVC048/// 09/08 Q1013
EGPE 192320Z AUTO 09003KT 9999 DZ NCD 09/08 Q1014   
EGPE 192250Z AUTO 00000KT 9999 DZ NCD 09/08 Q1014   
EGPE 192220Z AUTO 21001KT 9999 DZ NCD 09/08 Q1014   
EGPE 192150Z AUTO 18004KT 9999 -DZ FEW041/// 10/08 Q1014
EGPE 192120Z AUTO 19006KT 9999 DZ OVC045/// 10/08 Q1015 
EGPE 192050Z 20003KT 9999 -RA FEW030 BKN047 10/08 Q1015 
EGPE 192020Z 23008KT 9999 -RA FEW030 BKN047 11/08 Q1015 
EGPE 191950Z 24011KT 9999 -RA FEW030 SCT047 12/07 Q1015 
EGPE 191920Z 24012KT 9999 -RA FEW035 13/07 Q1015
EGPE 191850Z 24009KT 9999 FEW035 14/06 Q1015
EGPE 191820Z 25010KT 9999 FEW045 14/06 Q1015
EGPE 191750Z 25009KT 9999 FEW045 15/05 Q1015
EGPE 191720Z 26012KT 9999 FEW040 15/05 Q1015
EGPE 191650Z 26011KT 9999 FEW038 15/05 Q1015
EGPE 191620Z 26011KT 9999 FEW038 16/06 Q1015